Latest Weather Observations for Dalby

IDQ60801

Issued at 9:05 am EST Saturday 23 August 2014 (issued every 30 minutes, with the page automatically refreshed every 10 minutes)

About weather observations | Map of weather stations | Latest weather observations for QLD | Other Formats
Station Details ID: 041522 Name: DALBY AIRPORT Lat: -27.16 Lon: 151.26 Height: 343.9 m
Data from the previous 72 hours. | See also: Recent months at Dalby
Date/Time
EST
Temp
°C
App
Temp
°C
Dew
Point
Rel
Hum
%
Delta-T
°C
Wind Press
QNH
hPa
Press
MSL
hPa
Rain
since 9 am
mm
Dir
 
Spd
km/h
Gust
km/h
Spd
kts
Gust
kts
23/09:00am 15.3 11.9 12.4 83 1.6 SSE 22 30 12 16 1024.1 1023.9 4.8
23/08:30am 13.7 9.9 11.2 85 1.3 SSE 22 33 12 18 1023.8 1023.7 4.8
23/08:00am 13.0 9.3 10.2 83 1.5 SSE 20 32 11 17 1023.7 1023.5 4.8
23/07:30am 11.9 8.3 10.0 88 1.0 SSE 19 24 10 13 1023.2 1023.0 4.8
23/07:00am 11.1 7.8 9.7 91 0.7 S 17 20 9 11 1023.0 1022.8 4.8
23/06:30am 10.8 7.5 9.6 92 0.6 SSE 17 20 9 11 1022.7 1022.5 4.8
23/06:00am 10.7 7.8 9.5 92 0.6 S 15 19 8 10 1022.5 1022.3 4.8
23/05:30am 10.7 7.8 9.5 92 0.6 S 15 20 8 11 1022.2 1022.0 4.8
23/05:00am 10.7 8.0 9.1 90 0.8 SSE 13 17 7 9 1022.1 1021.9 4.8
23/04:30am 11.2 9.1 9.6 90 0.8 SSE 11 15 6 8 1022.0 1021.8 4.8
23/04:00am 11.5 9.1 10.1 91 0.7 SSE 13 17 7 9 1022.0 1021.8 4.6
23/03:30am 11.3 9.3 10.0 92 0.7 SSE 11 15 6 8 1022.2 1022.0 4.6
23/03:00am 11.3 9.3 10.0 92 0.7 S 11 15 6 8 1022.5 1022.3 4.6
23/02:30am 11.3 9.3 10.0 92 0.7 S 11 13 6 7 1022.7 1022.5 4.6
23/02:00am 11.4 9.0 10.0 91 0.7 S 13 17 7 9 1023.1 1022.9 4.6
23/01:30am 11.5 8.7 10.1 91 0.7 SSE 15 19 8 10 1023.4 1023.2 4.6
23/01:00am 11.7 9.4 10.3 91 0.7 SSE 13 17 7 9 1023.7 1023.5 4.6
23/12:30am 11.6 8.9 10.2 91 0.7 SSE 15 20 8 11 1023.8 1023.7 4.4
23/12:00am 11.6 8.5 10.3 92 0.7 SE 17 22 9 12 1023.9 1023.8 4.4
 
Date/Time
EST
Temp
°C
App
Temp
°C
Dew
Point
Rel
Hum
%
Delta-T
°C
Wind Press
QNH
hPa
Press
MSL
hPa
Rain
since 9 am
mm
Dir
 
Spd
km/h
Gust
km/h
Spd
kts
Gust
kts
22/11:30pm 11.8 9.1 10.2 90 0.8 SSE 15 19 8 10 1023.9 1023.8 3.8
22/11:00pm 11.9 9.2 10.5 91 0.7 SSE 15 19 8 10 1024.1 1023.9 3.8
22/10:30pm 12.0 9.8 10.7 92 0.7 SSE 13 19 7 10 1024.2 1024.0 3.8
22/10:00pm 12.2 10.0 10.9 92 0.7 S 13 15 7 8 1024.4 1024.2 3.8
22/09:30pm 12.3 9.8 11.0 92 0.7 S 15 19 8 10 1024.5 1024.3 3.8
22/09:00pm 12.5 10.0 11.2 92 0.7 SE 15 19 8 10 1024.7 1024.5 3.8
22/08:30pm 12.6 10.2 11.3 92 0.7 SSE 15 20 8 11 1024.7 1024.5 3.8
22/08:00pm 12.8 10.4 11.5 92 0.7 SSE 15 20 8 11 1024.6 1024.4 3.6
22/07:30pm 13.0 11.1 11.9 93 0.6 SSE 13 19 7 10 1024.4 1024.2 3.6
22/07:00pm 13.0 10.3 11.7 92 0.7 SSE 17 22 9 12 1024.2 1024.0 3.4
22/06:30pm 13.0 9.9 11.6 91 0.8 SE 19 24 10 13 1023.8 1023.7 3.4
22/06:00pm 13.2 10.2 11.8 91 0.8 SE 19 24 10 13 1023.8 1023.7 3.0
22/05:30pm 13.5 10.3 11.9 90 0.9 SE 20 24 11 13 1023.6 1023.4 2.6
22/05:00pm 14.0 11.0 12.0 88 1.1 SE 19 24 10 13 1023.4 1023.2 2.2
22/04:30pm 14.7 11.4 11.7 82 1.6 SE 20 28 11 15 1023.1 1022.9 2.2
22/04:00pm 14.9 11.7 11.9 82 1.6 SE 20 26 11 14 1022.8 1022.6 2.2
22/03:30pm 14.9 11.8 12.2 84 1.5 SE 20 28 11 15 1022.7 1022.5 2.2
22/03:00pm 14.5 12.1 12.5 88 1.1 SE 17 24 9 13 1023.0 1022.8 2.2
22/02:30pm 14.2 12.0 12.2 88 1.1 SE 15 19 8 10 1023.2 1023.0 2.0
22/02:00pm 14.5 12.4 12.5 88 1.1 ESE 15 17 8 9 1023.4 1023.2 1.8
22/01:30pm 14.3 11.8 12.2 87 1.2 ESE 17 20 9 11 1023.7 1023.5 1.6
22/01:00pm 14.4 11.7 11.7 84 1.5 ESE 17 20 9 11 1024.1 1023.9 1.0
22/12:30pm 14.4 11.9 12.3 87 1.2 ESE 17 22 9 12 1024.4 1024.2 0.6
22/12:00pm 14.5 11.3 11.3 81 1.7 SE 19 24 10 13 1024.9 1024.7 0.0
22/11:30am 14.8 10.6 11.2 79 2.0 ESE 24 32 13 17 1025.2 1025.0 0.0
22/11:00am 15.1 10.8 10.7 75 2.4 SE 24 28 13 15 1025.4 1025.2 0.0
22/10:30am 15.1 11.5 10.7 75 2.4 SE 20 30 11 16 1025.6 1025.4 0.0
22/10:00am 14.6 10.6 10.6 77 2.1 SE 22 30 12 16 1025.7 1025.5 0.0
22/09:30am 14.2 9.9 10.8 80 1.8 ESE 24 32 13 17 1025.6 1025.4 0.0
22/09:00am 13.7 10.2 11.0 84 1.4 ESE 20 28 11 15 1025.5 1025.3 2.6
22/08:30am 13.2 9.2 10.4 83 1.5 ESE 22 28 12 15 1025.2 1025.0 2.6
22/08:00am 12.7 9.5 10.1 84 1.4 ESE 17 22 9 12 1024.9 1024.7 2.6
22/07:30am 12.3 9.9 10.0 86 1.2 ESE 13 17 7 9 1024.8 1024.6 2.4
22/07:00am 11.8 8.5 9.7 87 1.1 SE 17 20 9 11 1024.3 1024.1 2.4
22/06:30am 11.8 8.5 9.4 85 1.2 ESE 17 20 9 11 1023.8 1023.7 2.4
22/06:00am 11.9 9.0 9.5 85 1.2 SE 15 20 8 11 1023.5 1023.3 2.4
22/05:30am 11.7 8.0 9.4 86 1.2 SE 19 22 10 12 1023.3 1023.1 2.4
22/05:00am 12.0 8.7 9.7 86 1.2 SSE 17 22 9 12 1023.1 1022.9 2.4
22/04:30am 11.9 9.0 9.8 87 1.1 SSE 15 19 8 10 1023.0 1022.8 2.4
22/04:00am 11.9 9.3 9.5 85 1.2 SSE 13 19 7 10 1022.7 1022.5 2.4
22/03:30am 11.8 9.6 9.2 84 1.3 SSE 11 15 6 8 1022.6 1022.4 2.4
22/03:00am 11.7 9.1 9.4 86 1.2 SE 13 15 7 8 1022.9 1022.7 2.4
22/02:30am 11.8 8.5 9.4 85 1.2 E 17 24 9 13 1022.9 1022.7 2.4
22/02:00am 12.0 8.4 9.9 87 1.1 E 19 22 10 12 1023.3 1023.1 2.4
22/01:30am - - 10.3 - - E 19 24 10 13 - 1023.8 2.2
22/01:00am 12.3 8.9 10.4 88 1.0 ESE 19 24 10 13 1023.8 1023.7 2.2
22/12:30am 12.7 9.7 10.6 87 1.1 SSE 17 20 9 11 1024.3 1024.1 2.2
22/12:00am 12.9 11.5 10.8 87 1.1 E 9 13 5 7 1025.0 1024.8 1.8
 
Date/Time
EST
Temp
°C
App
Temp
°C
Dew
Point
Rel
Hum
%
Delta-T
°C
Wind Press
QNH
hPa
Press
MSL
hPa
Rain
since 9 am
mm
Dir
 
Spd
km/h
Gust
km/h
Spd
kts
Gust
kts
21/11:30pm 13.3 12.2 10.8 85 1.3 SE 7 9 4 5 1025.0 1024.8 1.4
21/11:00pm 13.6 12.9 11.3 86 1.2 ESE 6 9 3 5 1024.8 1024.6 1.2
21/10:30pm 13.6 14.1 11.5 87 1.1 CALM 0 0 0 0 1024.7 1024.5 1.0
21/10:00pm 13.6 13.9 10.8 83 1.5 CALM 0 0 0 0 1024.2 1024.0 0.6
21/09:30pm 13.6 12.6 10.9 84 1.4 NE 7 11 4 6 1024.1 1023.9 0.6
21/09:00pm 13.9 12.1 10.7 81 1.7 E 11 13 6 7 1023.8 1023.7 0.4
21/08:30pm 14.0 10.9 10.2 78 2.0 E 17 20 9 11 1023.3 1023.1 0.4
21/08:00pm 14.2 10.6 10.0 76 2.2 E 19 24 10 13 1022.9 1022.7 0.4
21/07:30pm 14.8 11.2 10.4 75 2.3 E 20 26 11 14 1022.5 1022.3 0.4
21/07:00pm 15.2 10.0 10.2 72 2.7 E 28 35 15 19 1022.0 1021.8 0.4
21/06:30pm 15.7 11.8 9.6 67 3.2 E 20 32 11 17 1021.6 1021.4 0.2
21/06:00pm 16.3 12.4 9.3 63 3.7 NNE 20 24 11 13 1021.1 1020.8 0.0
21/05:30pm 19.3 14.6 5.0 39 7.1 ESE 19 28 10 15 1020.2 1020.0 0.0
21/05:00pm 20.0 15.6 4.5 36 7.6 ESE 17 22 9 12 1019.9 1019.7 0.0
21/04:30pm 20.8 16.0 4.4 34 8.1 ESE 19 26 10 14 1019.4 1019.2 0.0
21/04:00pm 21.4 16.3 3.1 30 8.8 ESE 19 28 10 15 1019.2 1019.0 0.0
21/03:30pm 21.4 15.8 3.6 31 8.7 ESE 22 30 12 16 1019.0 1018.8 0.0
21/03:00pm 21.6 16.3 2.8 29 9.0 E 20 26 11 14 1019.2 1019.0 0.0
21/02:30pm 22.0 16.4 3.6 30 9.0 ESE 22 35 12 19 1019.6 1019.4 0.0
21/02:00pm 21.4 16.0 4.5 33 8.4 ESE 22 28 12 15 1019.8 1019.6 0.0
21/01:30pm 20.7 16.1 3.9 33 8.2 SE 17 26 9 14 1020.1 1019.9 0.0
21/01:00pm 21.3 15.9 4.4 33 8.3 ESE 22 30 12 16 1020.3 1020.1 0.0
21/12:30pm 21.8 16.8 8.0 41 7.3 E 24 32 13 17 1021.0 1020.7 0.0
21/12:00pm 20.3 16.1 7.3 43 6.7 SE 19 28 10 15 1021.7 1021.5 0.0
21/11:30am 19.3 14.1 7.1 45 6.3 SE 24 32 13 17 1022.0 1021.8 0.0
21/11:00am 18.7 14.3 7.5 48 5.8 SE 20 32 11 17 1022.5 1022.3 0.0
21/10:30am 18.0 13.9 8.6 54 4.9 SE 20 30 11 16 1022.9 1022.7 0.0
21/10:00am 16.5 12.5 8.2 58 4.3 ESE 19 26 10 14 1023.2 1023.0 0.0
21/09:30am 15.6 11.4 8.1 61 3.8 ESE 20 28 11 15 1023.2 1023.0 0.0
21/09:00am 14.7 11.0 8.0 64 3.4 SE 17 26 9 14 1023.2 1023.0 0.0
21/08:30am 14.0 10.5 8.6 70 2.8 SE 17 22 9 12 1023.2 1023.0 0.0
21/08:00am 12.2 8.8 7.7 74 2.2 SE 15 19 8 10 1022.9 1022.7 0.0
21/07:30am 10.8 7.2 6.9 77 1.9 SE 15 19 8 10 1022.7 1022.5 0.0
21/07:00am 9.9 7.0 6.6 80 1.6 SSE 11 13 6 7 1022.4 1022.2 0.0
21/06:30am 9.6 6.4 6.7 82 1.4 SE 13 17 7 9 1022.2 1022.0 0.0
21/06:00am 10.2 7.1 7.1 81 1.5 SSE 13 17 7 9 1021.8 1021.6 0.0
21/05:30am 10.7 7.7 7.8 82 1.4 SE 13 17 7 9 1021.7 1021.5 0.0
21/05:00am 11.1 8.2 8.1 82 1.5 SE 13 15 7 8 1021.4 1021.2 0.0
21/04:30am 11.1 8.7 8.5 84 1.3 SE 11 15 6 8 1021.5 1021.3 0.0
21/04:00am 11.5 8.7 8.5 82 1.5 ESE 13 15 7 8 1021.5 1021.3 0.0
21/03:30am 11.8 9.1 8.8 82 1.5 ESE 13 15 7 8 1021.3 1021.0 0.0
21/03:00am 12.1 9.4 9.1 82 1.5 ESE 13 17 7 9 1021.3 1021.0 0.0
21/02:30am 12.2 9.6 9.4 83 1.4 ESE 13 17 7 9 1021.4 1021.2 0.0
21/02:00am 12.7 9.8 9.5 81 1.6 SE 15 19 8 10 1021.5 1021.3 0.0
21/01:30am 12.7 11.0 9.7 82 1.6 S 9 13 5 7 1021.7 1021.5 0.0
21/01:00am 12.8 10.3 9.6 81 1.7 E 13 19 7 10 1021.6 1021.4 0.0
21/12:30am 13.1 9.8 9.7 80 1.8 E 17 20 9 11 1021.5 1021.3 0.0
21/12:00am 13.1 9.2 9.5 79 1.9 E 20 26 11 14 1021.3 1021.0 0.0
 
Date/Time
EST
Temp
°C
App
Temp
°C
Dew
Point
Rel
Hum
%
Delta-T
°C
Wind Press
QNH
hPa
Press
MSL
hPa
Rain
since 9 am
mm
Dir
 
Spd
km/h
Gust
km/h
Spd
kts
Gust
kts
20/11:30pm 13.4 9.5 9.5 77 2.0 E 20 24 11 13 1021.3 1021.0 0.0
20/11:00pm 13.7 9.0 9.2 74 2.3 E 24 30 13 16 1021.4 1021.2 0.0
20/10:30pm 14.3 10.3 9.1 71 2.7 ENE 20 28 11 15 1021.3 1021.0 0.0
20/10:00pm 14.2 10.1 8.8 70 2.8 E 20 26 11 14 1021.3 1021.0 0.0
20/09:30pm 14.5 10.6 8.7 68 3.0 E 19 24 10 13 1021.2 1020.9 0.0
20/09:00pm 14.0 10.1 7.1 63 3.4 E 17 22 9 12 1021.1 1020.8 0.0
20/08:30pm 12.9 9.9 5.8 62 3.4 E 11 13 6 7 1020.7 1020.5 0.0
20/08:00pm 13.2 10.5 5.4 59 3.7 ESE 9 11 5 6 1020.7 1020.5 0.0
20/07:30pm 14.3 11.7 6.2 58 4.0 SE 9 13 5 7 1020.1 1019.9 0.0
20/07:00pm 13.9 11.7 5.3 56 4.1 SW 6 7 3 4 1019.8 1019.6 0.0
20/06:30pm 15.3 12.8 4.7 49 5.1 SSW 7 9 4 5 1019.4 1019.2 0.0
20/06:00pm 16.5 13.2 4.5 45 5.7 SW 11 13 6 7 1019.1 1018.9 0.0
20/05:30pm 18.9 15.6 4.3 38 7.1 SSW 11 17 6 9 1018.6 1018.3 0.0
20/05:00pm 20.0 16.6 4.1 35 7.7 SSW 11 13 6 7 1018.3 1018.0 0.0
20/04:30pm 20.3 16.8 3.5 33 8.1 S 11 15 6 8 1018.0 1017.7 0.0
20/04:00pm 20.5 16.7 3.7 33 8.1 S 13 19 7 10 1017.6 1017.4 0.0
20/03:30pm 20.3 17.6 3.5 33 8.1 SE 7 13 4 7 1017.6 1017.4 0.0
20/03:00pm 20.4 16.9 3.6 33 8.1 WSW 11 15 6 8 1018.0 1017.7 0.0
20/02:30pm 20.0 16.5 3.7 34 7.9 S 11 26 6 14 1018.0 1017.7 0.0
20/02:00pm 20.0 16.3 4.5 36 7.6 S 13 20 7 11 1018.1 1017.8 0.0
20/01:30pm 19.1 16.2 4.5 38 7.1 SE 9 17 5 9 1018.4 1018.1 0.0
20/01:00pm 19.0 16.4 6.1 43 6.5 S 9 17 5 9 1018.8 1018.5 0.0
20/12:30pm 18.7 15.5 6.9 46 6.0 S 13 20 7 11 1019.1 1018.9 0.0
20/12:00pm 18.1 15.5 7.8 51 5.3 S 11 19 6 10 1019.6 1019.4 0.0
20/11:30am 16.7 14.1 7.6 55 4.7 S 11 20 6 11 1020.0 1019.8 0.0
20/11:00am 14.9 12.3 9.5 70 2.8 S 13 19 7 10 1020.5 1020.3 0.0
20/10:30am 13.1 11.3 9.5 79 1.9 S 9 13 5 7 1021.0 1020.7 0.0
20/10:00am 11.3 9.5 9.6 89 0.9 ESE 9 13 5 7 1021.2 1020.9 0.0
20/09:30am 9.7 8.1 8.9 95 0.4 SE 7 11 4 6 1021.3 1021.0 0.0

Other Formats:

Comma delimited format used in spreadsheet applications
http://www.bom.gov.au/fwo/IDQ60801/IDQ60801.94542.axf

JavaScript Object Notation format (JSON) in row-major order
http://www.bom.gov.au/fwo/IDQ60801/IDQ60801.94542.json